KRMG/RMG METAR and TAF weather

Enter ICAO airport designator
Station Type Date Time Source
KRMG METAR 2021/06/24 04:53 UTC NOAA

KRMG 240453Z AUTO 14003KT 10SM CLR 24/16 A3016 RMK AO2 SLP202 T02390156 403060150


Station Type Date Time Source
KRMG Decoded METAR 2021/06/24 04:53 UTC NOAA

ROME R. B. RUSSELL AIRPORT, GA, United States (KRMG) 34-21N 085-10W 193M
Jun 24, 2021 - 12:53 AM EDT / 2021.06.24 0453 UTC
Wind: from the SE (140 degrees) at 3 MPH (3 KT):0
Visibility: 10 mile(s):0
Sky conditions: clear
Temperature: 75.0 F (23.9 C)
Dew Point: 60.1 F (15.6 C)
Relative Humidity: 59%
Pressure (altimeter): 30.16 in. Hg (1021 hPa)
ob: KRMG 240453Z AUTO 14003KT 10SM CLR 24/16 A3016 RMK AO2 SLP202 T02390156 403060150
cycle: 5

Station Type Date Time Source
KRMG TAF UTC NOAA

Error!

Example: see airport list